Time;durP1;ratioP1;P1;durP2;ratioP2;P2;SDS_P1;SDS_P2;PMS_P1;PMS_P2;Temp;Humidity;BMP_temperature;BMP_pressure;BME280_temperature;BME280_humidity;BME280_pressure;Samples;Min_cycle;Max_cycle;Signal;HPM_P1;HPM_P2
2022/04/15 00:01:49;;;;;;;5.75;2.53;;;;;;;;;;5112139;28;20032;-71
2022/04/15 00:04:15;;;;;;;6.40;2.40;;;;;;;;;;5111388;28;20032;-69
2022/04/15 00:06:41;;;;;;;4.40;2.50;;;;;;;;;;5111417;28;20080;-69
2022/04/15 00:09:06;;;;;;;6.18;2.47;;;;;;;;;;5111531;28;20028;-67
2022/04/15 00:11:32;;;;;;;3.88;2.35;;;;;;;;;;5111522;28;20024;-70
2022/04/15 00:14:00;;;;;;;4.68;2.67;;;;;;;;;;5111484;28;20038;-74
2022/04/15 00:16:25;;;;;;;4.97;2.30;;;;;;;;;;5111317;28;20100;-69
2022/04/15 00:18:51;;;;;;;5.45;2.50;;;;;;;;;;5111229;28;20156;-73
2022/04/15 00:21:16;;;;;;;4.63;2.55;;;;;;;;;;5111270;28;20027;-71
2022/04/15 00:23:42;;;;;;;7.00;2.53;;;;;;;;;;5110836;28;20109;-69
2022/04/15 00:26:07;;;;;;;7.45;2.60;;;;;;;;;;5111323;28;20473;-69
2022/04/15 00:28:34;;;;;;;6.13;2.58;;;;;;;;;;5111197;28;20031;-70
2022/04/15 00:30:59;;;;;;;5.78;2.70;;;;;;;;;;5111134;28;20020;-68
2022/04/15 00:33:25;;;;;;;4.50;2.42;;;;;;;;;;5111167;28;20033;-68
2022/04/15 00:35:51;;;;;;;4.18;2.35;;;;;;;;;;5111033;28;20019;-70
2022/04/15 00:38:16;;;;;;;5.25;2.22;;;;;;;;;;5110815;28;20027;-68
2022/04/15 00:40:42;;;;;;;5.00;2.60;;;;;;;;;;5109458;28;20111;-68
2022/04/15 00:43:07;;;;;;;8.40;2.30;;;;;;;;;;5111066;28;20501;-72
2022/04/15 00:45:33;;;;;;;6.43;2.42;;;;;;;;;;5110480;28;20287;-67
2022/04/15 00:48:00;;;;;;;4.75;2.50;;;;;;;;;;5110585;28;20020;-68
2022/04/15 00:50:33;;;;;;;5.82;2.30;;;;;;;;;;5110914;28;20072;-69
2022/04/15 00:53:06;;;;;;;3.92;2.25;;;;;;;;;;5110895;28;20687;-73
2022/04/15 00:55:32;;;;;;;4.18;2.17;;;;;;;;;;5110624;28;20027;-68
2022/04/15 00:58:00;;;;;;;5.18;2.38;;;;;;;;;;5110508;28;20084;-71
2022/04/15 01:00:27;;;;;;;6.65;2.42;;;;;;;;;;5110570;28;20015;-73
2022/04/15 01:02:56;;;;;;;4.45;2.20;;;;;;;;;;5110682;28;20036;-73
2022/04/15 01:05:21;;;;;;;4.28;2.20;;;;;;;;;;5110859;28;20096;-68
2022/04/15 01:07:52;;;;;;;4.70;2.20;;;;;;;;;;5110557;28;20031;-68
2022/04/15 01:10:19;;;;;;;4.85;2.30;;;;;;;;;;5110452;28;20028;-68
2022/04/15 01:12:53;;;;;;;4.63;2.17;;;;;;;;;;5110459;28;20119;-72
2022/04/15 01:15:19;;;;;;;4.38;2.20;;;;;;;;;;5110410;28;20045;-71
2022/04/15 01:17:44;;;;;;;3.58;2.00;;;;;;;;;;5110521;28;20032;-67
2022/04/15 01:20:11;;;;;;;4.05;2.10;;;;;;;;;;5110621;28;20027;-72
2022/04/15 01:22:42;;;;;;;4.78;2.10;;;;;;;;;;5110551;28;20030;-73
2022/04/15 01:25:10;;;;;;;5.05;2.00;;;;;;;;;;5110212;28;20460;-70
2022/04/15 01:27:37;;;;;;;5.18;2.30;;;;;;;;;;5110290;28;20024;-68
2022/04/15 01:30:04;;;;;;;4.07;2.22;;;;;;;;;;5110050;28;20043;-73
2022/04/15 01:32:30;;;;;;;4.97;2.17;;;;;;;;;;5110252;28;20030;-72
2022/04/15 01:34:55;;;;;;;5.13;2.15;;;;;;;;;;5110305;28;20391;-67
2022/04/15 01:37:23;;;;;;;4.45;2.45;;;;;;;;;;5110333;28;20027;-66
2022/04/15 01:39:49;;;;;;;4.57;1.90;;;;;;;;;;5110232;28;20444;-67
2022/04/15 01:42:15;;;;;;;5.55;2.10;;;;;;;;;;5110286;28;20020;-73
2022/04/15 01:44:41;;;;;;;4.32;2.10;;;;;;;;;;5109996;28;20074;-73
2022/04/15 01:47:08;;;;;;;4.63;2.28;;;;;;;;;;5110247;28;20112;-71
2022/04/15 01:49:33;;;;;;;5.32;2.20;;;;;;;;;;5110043;28;20058;-67
2022/04/15 01:51:59;;;;;;;5.15;2.10;;;;;;;;;;5110123;28;20023;-74
2022/04/15 01:54:24;;;;;;;5.28;2.40;;;;;;;;;;5110797;28;20032;-74
2022/04/15 01:56:49;;;;;;;5.72;2.38;;;;;;;;;;5112287;28;20479;-71
2022/04/15 01:59:15;;;;;;;7.00;2.30;;;;;;;;;;5113805;28;20050;-73
2022/04/15 02:01:41;;;;;;;4.85;2.00;;;;;;;;;;5114170;28;20028;-74
2022/04/15 02:04:06;;;;;;;3.53;1.88;;;;;;;;;;5113905;28;20059;-72
2022/04/15 02:06:32;;;;;;;3.03;1.75;;;;;;;;;;5113917;28;20027;-71
2022/04/15 02:08:57;;;;;;;3.53;1.90;;;;;;;;;;5114230;28;20099;-74
2022/04/15 02:11:23;;;;;;;4.75;1.95;;;;;;;;;;5113958;27;20023;-72
2022/04/15 02:13:48;;;;;;;4.50;2.17;;;;;;;;;;5113883;28;20024;-66
2022/04/15 02:16:13;;;;;;;5.53;2.25;;;;;;;;;;5113757;28;20031;-72
2022/04/15 02:18:39;;;;;;;3.67;2.03;;;;;;;;;;5113725;28;20077;-68
2022/04/15 02:21:04;;;;;;;4.47;2.00;;;;;;;;;;5112441;28;20069;-67
2022/04/15 02:23:30;;;;;;;5.03;2.10;;;;;;;;;;5113035;28;20103;-74
2022/04/15 02:25:55;;;;;;;6.63;2.10;;;;;;;;;;5113365;28;20023;-72
2022/04/15 02:28:21;;;;;;;5.32;1.90;;;;;;;;;;5113519;28;20518;-73
2022/04/15 02:30:47;;;;;;;4.53;2.08;;;;;;;;;;5113627;28;20112;-72
2022/04/15 02:33:14;;;;;;;4.40;2.33;;;;;;;;;;5113465;28;20080;-68
2022/04/15 02:35:40;;;;;;;5.43;2.20;;;;;;;;;;5113812;28;20053;-72
2022/04/15 02:38:05;;;;;;;6.20;2.22;;;;;;;;;;5111724;28;20032;-71
2022/04/15 02:40:30;;;;;;;6.18;2.20;;;;;;;;;;5113259;28;20072;-69
2022/04/15 02:42:56;;;;;;;3.83;1.90;;;;;;;;;;5113270;28;20156;-73
2022/04/15 02:45:22;;;;;;;3.83;2.05;;;;;;;;;;5113181;28;20483;-70
2022/04/15 02:47:48;;;;;;;4.70;2.10;;;;;;;;;;5113378;28;20030;-67
2022/04/15 02:50:14;;;;;;;3.10;2.00;;;;;;;;;;5113157;28;20055;-74
2022/04/15 02:52:39;;;;;;;4.25;2.10;;;;;;;;;;5113229;28;20116;-72
2022/04/15 02:55:05;;;;;;;4.20;2.00;;;;;;;;;;5112925;28;20028;-73
2022/04/15 02:57:31;;;;;;;5.03;2.17;;;;;;;;;;5112885;28;20020;-73
2022/04/15 02:59:56;;;;;;;6.32;2.10;;;;;;;;;;5112600;28;20020;-71
2022/04/15 03:02:22;;;;;;;4.03;2.15;;;;;;;;;;5113082;28;20133;-69
2022/04/15 03:04:47;;;;;;;3.80;2.08;;;;;;;;;;5113226;28;20101;-71
2022/04/15 03:07:13;;;;;;;4.65;2.30;;;;;;;;;;5112915;28;20497;-74
2022/04/15 03:09:38;;;;;;;5.35;2.05;;;;;;;;;;5112667;28;20039;-72
2022/04/15 03:12:04;;;;;;;3.53;1.85;;;;;;;;;;5112610;28;20023;-71
2022/04/15 03:14:29;;;;;;;5.70;2.20;;;;;;;;;;5112738;28;20102;-73
2022/04/15 03:16:55;;;;;;;5.30;1.98;;;;;;;;;;5111179;28;20059;-68
2022/04/15 03:19:20;;;;;;;8.20;2.40;;;;;;;;;;5112570;28;20073;-67
2022/04/15 03:21:46;;;;;;;4.53;2.00;;;;;;;;;;5112797;28;20020;-69
2022/04/15 03:24:11;;;;;;;5.30;2.13;;;;;;;;;;5112017;28;20047;-72
2022/04/15 03:26:36;;;;;;;3.22;2.03;;;;;;;;;;5112526;28;20020;-68
2022/04/15 03:29:02;;;;;;;3.47;1.95;;;;;;;;;;5112091;28;20023;-68
2022/04/15 03:31:27;;;;;;;5.28;1.90;;;;;;;;;;5112089;27;20451;-73
2022/04/15 03:33:53;;;;;;;3.60;2.00;;;;;;;;;;5112188;28;20043;-72
2022/04/15 03:36:18;;;;;;;4.43;2.00;;;;;;;;;;5112370;28;20057;-72
2022/04/15 03:38:44;;;;;;;3.03;2.03;;;;;;;;;;5112112;28;20023;-71
2022/04/15 03:41:09;;;;;;;3.20;1.80;;;;;;;;;;5112437;28;20023;-67
2022/04/15 03:43:35;;;;;;;6.93;2.00;;;;;;;;;;5112155;28;20020;-71
2022/04/15 03:46:00;;;;;;;3.45;2.08;;;;;;;;;;5111916;27;20023;-72
2022/04/15 03:48:26;;;;;;;7.32;1.83;;;;;;;;;;5112093;28;20521;-70
2022/04/15 03:50:53;;;;;;;5.20;1.90;;;;;;;;;;5111810;28;20039;-73
2022/04/15 03:53:19;;;;;;;3.92;1.95;;;;;;;;;;5111961;28;20227;-67
2022/04/15 03:55:45;;;;;;;3.92;2.00;;;;;;;;;;5111986;27;20032;-71
2022/04/15 03:58:13;;;;;;;5.30;2.05;;;;;;;;;;5112193;28;20023;-68
2022/04/15 04:00:39;;;;;;;5.43;2.10;;;;;;;;;;5111431;28;20027;-69
2022/04/15 04:03:04;;;;;;;5.03;2.30;;;;;;;;;;5111768;28;20383;-68
2022/04/15 04:05:30;;;;;;;3.97;1.95;;;;;;;;;;5111416;28;20034;-72
2022/04/15 04:07:55;;;;;;;4.80;2.00;;;;;;;;;;5111495;28;20042;-73
2022/04/15 04:10:21;;;;;;;4.10;2.10;;;;;;;;;;5111513;28;20039;-70
2022/04/15 04:12:48;;;;;;;5.50;2.08;;;;;;;;;;5110386;28;20505;-73
2022/04/15 04:15:14;;;;;;;7.40;2.10;;;;;;;;;;5111301;28;20078;-73
2022/04/15 04:17:40;;;;;;;6.45;2.10;;;;;;;;;;5111474;28;20494;-72
2022/04/15 04:20:07;;;;;;;6.38;2.15;;;;;;;;;;5110415;28;20084;-68
2022/04/15 04:22:35;;;;;;;9.68;2.35;;;;;;;;;;5111884;28;20422;-73
2022/04/15 04:25:01;;;;;;;5.75;2.28;;;;;;;;;;5110836;28;20055;-72
2022/04/15 04:27:27;;;;;;;11.00;2.60;;;;;;;;;;5111589;28;20035;-68
2022/04/15 04:29:53;;;;;;;5.43;2.22;;;;;;;;;;5110874;28;20038;-69
2022/04/15 04:32:19;;;;;;;7.95;2.15;;;;;;;;;;5111234;28;20166;-68
2022/04/15 04:34:45;;;;;;;7.30;1.90;;;;;;;;;;5111224;28;20501;-71
2022/04/15 04:37:11;;;;;;;5.45;2.22;;;;;;;;;;5110867;28;20034;-74
2022/04/15 04:39:37;;;;;;;6.03;2.70;;;;;;;;;;5110707;28;20394;-74
2022/04/15 04:42:03;;;;;;;5.32;2.30;;;;;;;;;;5111070;28;20026;-68
2022/04/15 04:44:30;;;;;;;6.22;2.58;;;;;;;;;;5110808;28;20019;-73
2022/04/15 04:46:56;;;;;;;4.78;2.03;;;;;;;;;;5111065;28;20020;-72
2022/04/15 04:49:22;;;;;;;7.50;2.40;;;;;;;;;;5110772;28;20073;-69
2022/04/15 04:51:48;;;;;;;6.75;2.25;;;;;;;;;;5110859;28;20461;-67
2022/04/15 04:54:14;;;;;;;8.90;2.60;;;;;;;;;;5110747;28;20522;-70
2022/04/15 04:56:39;;;;;;;9.80;2.47;;;;;;;;;;5110767;28;20051;-70
2022/04/15 04:59:04;;;;;;;5.78;2.33;;;;;;;;;;5110480;28;20034;-68
2022/04/15 05:01:30;;;;;;;4.80;2.22;;;;;;;;;;5110789;28;20027;-67
2022/04/15 05:03:55;;;;;;;7.47;2.00;;;;;;;;;;5110645;28;20031;-71
2022/04/15 05:06:21;;;;;;;10.13;2.40;;;;;;;;;;5110748;28;20112;-67
2022/04/15 05:08:46;;;;;;;6.30;2.30;;;;;;;;;;5110745;28;20020;-68
2022/04/15 05:11:12;;;;;;;5.30;2.42;;;;;;;;;;5110498;28;20016;-72
2022/04/15 05:13:37;;;;;;;8.05;2.42;;;;;;;;;;5110454;28;20106;-73
2022/04/15 05:16:03;;;;;;;10.50;3.20;;;;;;;;;;5110452;28;20207;-69
2022/04/15 05:18:28;;;;;;;10.05;2.60;;;;;;;;;;5110572;28;20028;-75
2022/04/15 05:20:54;;;;;;;8.38;2.85;;;;;;;;;;5110223;28;20024;-67
2022/04/15 05:23:19;;;;;;;8.35;3.22;;;;;;;;;;5110209;28;20059;-71
2022/04/15 05:25:45;;;;;;;6.50;2.58;;;;;;;;;;5110269;28;20040;-73
2022/04/15 05:28:11;;;;;;;7.32;2.28;;;;;;;;;;5110490;28;20032;-71
2022/04/15 05:30:36;;;;;;;7.25;2.22;;;;;;;;;;5112257;28;20111;-72
2022/04/15 05:33:01;;;;;;;7.57;2.63;;;;;;;;;;5114621;28;20060;-73
2022/04/15 05:35:27;;;;;;;13.90;2.90;;;;;;;;;;5114581;28;20024;-68
2022/04/15 05:37:52;;;;;;;7.80;2.70;;;;;;;;;;5114708;28;20107;-73
2022/04/15 05:40:19;;;;;;;9.32;2.67;;;;;;;;;;5114501;28;20155;-72
2022/04/15 05:42:44;;;;;;;16.77;3.28;;;;;;;;;;5114649;27;20345;-68
2022/04/15 05:45:10;;;;;;;14.00;3.10;;;;;;;;;;5114190;28;20642;-68
2022/04/15 05:47:36;;;;;;;16.02;3.40;;;;;;;;;;5114314;28;20019;-70
2022/04/15 05:50:01;;;;;;;17.23;3.38;;;;;;;;;;5113954;28;20031;-72
2022/04/15 05:52:27;;;;;;;15.23;3.20;;;;;;;;;;5114329;28;20411;-70
2022/04/15 05:54:52;;;;;;;12.60;3.70;;;;;;;;;;5114336;28;20100;-74
2022/04/15 05:57:19;;;;;;;16.73;3.40;;;;;;;;;;5113059;28;20030;-73
2022/04/15 05:59:45;;;;;;;10.48;3.40;;;;;;;;;;5114028;28;20024;-68
2022/04/15 06:02:10;;;;;;;12.65;3.30;;;;;;;;;;5114000;28;20024;-74
2022/04/15 06:04:36;;;;;;;13.77;3.90;;;;;;;;;;5113944;28;20035;-72
2022/04/15 06:07:01;;;;;;;17.70;4.47;;;;;;;;;;5113919;28;20030;-73
2022/04/15 06:09:27;;;;;;;14.25;3.63;;;;;;;;;;5113892;28;20374;-70
2022/04/15 06:11:55;;;;;;;19.80;4.18;;;;;;;;;;5113984;28;20030;-73
2022/04/15 06:14:22;;;;;;;14.88;3.63;;;;;;;;;;5113800;27;20451;-74
2022/04/15 06:16:48;;;;;;;10.50;3.47;;;;;;;;;;5113926;27;20020;-74
2022/04/15 06:19:14;;;;;;;14.00;3.90;;;;;;;;;;5113744;28;20030;-74
2022/04/15 06:21:40;;;;;;;21.60;4.82;;;;;;;;;;5112082;28;20038;-72
2022/04/15 06:24:08;;;;;;;21.42;4.88;;;;;;;;;;5113273;28;20040;-73
2022/04/15 06:26:37;;;;;;;19.77;3.70;;;;;;;;;;5113554;27;20051;-74
2022/04/15 06:29:04;;;;;;;23.25;4.28;;;;;;;;;;5113413;28;20055;-70
2022/04/15 06:31:29;;;;;;;13.35;4.28;;;;;;;;;;5113416;28;20026;-73
2022/04/15 06:33:56;;;;;;;15.65;3.67;;;;;;;;;;5113495;27;20023;-74
2022/04/15 06:36:22;;;;;;;10.73;3.28;;;;;;;;;;5113455;28;20073;-73
2022/04/15 06:38:47;;;;;;;13.63;3.30;;;;;;;;;;5113316;28;20024;-69
2022/04/15 06:41:13;;;;;;;9.05;2.90;;;;;;;;;;5112614;28;20527;-68
2022/04/15 06:43:39;;;;;;;9.27;3.05;;;;;;;;;;5112644;28;20460;-69
2022/04/15 06:46:05;;;;;;;15.50;2.80;;;;;;;;;;5112978;28;20086;-67
2022/04/15 06:48:30;;;;;;;10.35;2.90;;;;;;;;;;5113336;28;20019;-72
2022/04/15 06:50:56;;;;;;;11.07;2.88;;;;;;;;;;5112925;28;20024;-75
2022/04/15 06:53:23;;;;;;;10.68;2.50;;;;;;;;;;5113266;28;20047;-71
2022/04/15 06:55:52;;;;;;;5.68;2.15;;;;;;;;;;5113148;28;20034;-72
2022/04/15 06:58:18;;;;;;;10.18;2.20;;;;;;;;;;5112937;28;20395;-68
2022/04/15 07:00:45;;;;;;;7.25;2.25;;;;;;;;;;5112535;28;20475;-72
2022/04/15 07:03:12;;;;;;;9.10;2.67;;;;;;;;;;5113061;28;20036;-74
2022/04/15 07:05:39;;;;;;;8.68;2.70;;;;;;;;;;5112972;28;20479;-74
2022/04/15 07:08:05;;;;;;;9.18;2.30;;;;;;;;;;5112831;27;20031;-72
2022/04/15 07:10:31;;;;;;;9.40;2.28;;;;;;;;;;5112437;28;20031;-69
2022/04/15 07:12:56;;;;;;;7.88;2.13;;;;;;;;;;5112599;28;20020;-73
2022/04/15 07:15:23;;;;;;;12.25;2.40;;;;;;;;;;5112406;28;20038;-74
2022/04/15 07:17:49;;;;;;;9.80;2.60;;;;;;;;;;5112617;28;20034;-73
2022/04/15 07:20:14;;;;;;;6.47;2.10;;;;;;;;;;5112738;27;20028;-74
2022/04/15 07:22:40;;;;;;;11.88;2.55;;;;;;;;;;5112635;27;20027;-72
2022/04/15 07:25:05;;;;;;;12.43;2.88;;;;;;;;;;5112098;28;20078;-74
2022/04/15 07:27:31;;;;;;;22.33;4.20;;;;;;;;;;5112852;27;20038;-67
2022/04/15 07:29:56;;;;;;;9.55;2.78;;;;;;;;;;5112009;28;20023;-69
2022/04/15 07:32:23;;;;;;;23.38;3.22;;;;;;;;;;5112293;28;20027;-72
2022/04/15 07:34:50;;;;;;;8.48;2.58;;;;;;;;;;5112022;28;20464;-73
2022/04/15 07:37:15;;;;;;;10.93;2.60;;;;;;;;;;5112306;28;20020;-68
2022/04/15 07:39:41;;;;;;;9.98;2.33;;;;;;;;;;5112377;28;20117;-71
2022/04/15 07:42:06;;;;;;;5.80;2.10;;;;;;;;;;5111960;28;20012;-71
2022/04/15 07:44:32;;;;;;;9.35;2.50;;;;;;;;;;5111737;28;20103;-73
2022/04/15 07:46:57;;;;;;;8.52;2.38;;;;;;;;;;5112100;28;20034;-73
2022/04/15 07:49:23;;;;;;;6.15;2.10;;;;;;;;;;5111740;28;20032;-67
2022/04/15 07:51:48;;;;;;;6.43;2.00;;;;;;;;;;5111687;28;20023;-68
2022/04/15 07:54:14;;;;;;;6.40;2.10;;;;;;;;;;5110916;28;20023;-67
2022/04/15 07:56:40;;;;;;;5.40;2.03;;;;;;;;;;5111884;28;20493;-67
2022/04/15 07:59:07;;;;;;;6.13;2.03;;;;;;;;;;5111728;28;20019;-72
2022/04/15 08:01:33;;;;;;;3.63;1.75;;;;;;;;;;5111719;28;20020;-73
2022/04/15 08:04:00;;;;;;;4.68;1.80;;;;;;;;;;5111656;27;20122;-71
2022/04/15 08:06:28;;;;;;;5.63;2.03;;;;;;;;;;5111537;27;20074;-69
2022/04/15 08:08:55;;;;;;;4.55;2.10;;;;;;;;;;5111611;28;20400;-74
2022/04/15 08:11:24;;;;;;;4.60;1.85;;;;;;;;;;5111403;28;20020;-69
2022/04/15 08:13:49;;;;;;;8.93;2.40;;;;;;;;;;5111398;27;20033;-71
2022/04/15 08:16:15;;;;;;;5.85;1.92;;;;;;;;;;5111246;28;20019;-68
2022/04/15 08:18:40;;;;;;;5.78;2.15;;;;;;;;;;5111403;28;20157;-74
2022/04/15 08:21:06;;;;;;;6.93;2.30;;;;;;;;;;5110999;28;20526;-68
2022/04/15 08:23:32;;;;;;;7.03;2.40;;;;;;;;;;5111095;28;20022;-74
2022/04/15 08:25:57;;;;;;;7.35;2.20;;;;;;;;;;5110935;28;20023;-74
2022/04/15 08:28:23;;;;;;;7.32;2.10;;;;;;;;;;5111139;28;20030;-67
2022/04/15 08:30:49;;;;;;;5.18;2.03;;;;;;;;;;5110997;28;20031;-67
2022/04/15 08:33:14;;;;;;;5.70;1.90;;;;;;;;;;5111165;28;20035;-67
2022/04/15 08:35:40;;;;;;;8.75;2.13;;;;;;;;;;5111145;28;20035;-72
2022/04/15 08:38:06;;;;;;;4.28;1.80;;;;;;;;;;5111333;28;20477;-75
2022/04/15 08:40:35;;;;;;;4.57;2.00;;;;;;;;;;5110711;28;20027;-75
2022/04/15 08:43:02;;;;;;;3.83;1.60;;;;;;;;;;5110847;28;20032;-69
2022/04/15 08:45:28;;;;;;;4.88;1.73;;;;;;;;;;5110851;28;20040;-68
2022/04/15 08:48:01;;;;;;;4.50;1.90;;;;;;;;;;5111219;28;20497;-68
2022/04/15 08:50:30;;;;;;;4.95;2.05;;;;;;;;;;5110851;28;20440;-72
2022/04/15 08:52:58;;;;;;;8.43;2.28;;;;;;;;;;5110910;28;20032;-72
2022/04/15 08:55:24;;;;;;;3.88;2.00;;;;;;;;;;5110605;28;20027;-73
2022/04/15 08:57:51;;;;;;;6.90;2.42;;;;;;;;;;5110887;28;20028;-72
2022/04/15 09:00:19;;;;;;;6.88;2.30;;;;;;;;;;5110771;28;20024;-68
2022/04/15 09:02:44;;;;;;;8.00;2.47;;;;;;;;;;5110652;28;20023;-74
2022/04/15 09:05:12;;;;;;;8.30;3.33;;;;;;;;;;5109092;28;20089;-72
2022/04/15 09:07:38;;;;;;;7.20;3.38;;;;;;;;;;5110772;28;20028;-70
2022/04/15 09:10:06;;;;;;;8.05;3.17;;;;;;;;;;5110531;28;20081;-68
2022/04/15 09:12:35;;;;;;;9.10;3.65;;;;;;;;;;5110176;28;20027;-68
2022/04/15 09:15:06;;;;;;;9.18;3.30;;;;;;;;;;5110286;28;20435;-72
2022/04/15 09:17:34;;;;;;;8.98;3.42;;;;;;;;;;5110441;28;20027;-66
2022/04/15 09:20:01;;;;;;;9.95;3.50;;;;;;;;;;5110904;28;20289;-74
2022/04/15 09:22:26;;;;;;;6.47;3.15;;;;;;;;;;5110373;28;20028;-69
2022/04/15 09:24:52;;;;;;;7.00;3.38;;;;;;;;;;5110067;28;20051;-68
2022/04/15 09:27:25;;;;;;;7.72;2.85;;;;;;;;;;5110211;28;20040;-74
2022/04/15 09:29:52;;;;;;;7.78;2.80;;;;;;;;;;5109899;28;20424;-73
2022/04/15 09:32:18;;;;;;;8.13;2.95;;;;;;;;;;5109895;28;20030;-74
2022/04/15 09:34:58;;;;;;;6.70;2.83;;;;;;;;;;5110461;28;20429;-68
2022/04/15 09:37:31;;;;;;;11.50;3.30;;;;;;;;;;5110109;28;20028;-71
2022/04/15 09:40:14;;;;;;;9.27;3.35;;;;;;;;;;5110127;28;20031;-72
2022/04/15 09:42:54;;;;;;;7.03;2.85;;;;;;;;;;5109828;28;20028;-68
2022/04/15 09:45:22;;;;;;;10.43;3.63;;;;;;;;;;5109724;28;20058;-68
2022/04/15 09:47:52;;;;;;;7.78;3.28;;;;;;;;;;5109787;28;20079;-72
2022/04/15 09:50:26;;;;;;;10.60;3.60;;;;;;;;;;5109770;28;20020;-67
2022/04/15 09:52:52;;;;;;;8.52;3.47;;;;;;;;;;5109774;28;20110;-74
2022/04/15 09:55:20;;;;;;;9.57;4.07;;;;;;;;;;5110324;28;20547;-75
2022/04/15 09:57:48;;;;;;;8.73;3.50;;;;;;;;;;5110565;28;20024;-69
2022/04/15 10:00:15;;;;;;;7.28;3.15;;;;;;;;;;5110043;28;20023;-75
2022/04/15 10:02:43;;;;;;;9.63;3.40;;;;;;;;;;5109888;28;20023;-75
2022/04/15 10:05:09;;;;;;;10.60;3.30;;;;;;;;;;5109787;28;20038;-74
2022/04/15 10:07:35;;;;;;;8.40;3.40;;;;;;;;;;5110189;28;20023;-77
2022/04/15 10:10:03;;;;;;;9.65;3.25;;;;;;;;;;5110011;28;20057;-67
2022/04/15 10:12:29;;;;;;;6.95;3.17;;;;;;;;;;5109863;28;20114;-73
2022/04/15 10:14:55;;;;;;;10.18;3.00;;;;;;;;;;5110293;28;20020;-74
2022/04/15 10:17:23;;;;;;;7.60;3.05;;;;;;;;;;5111218;28;20028;-74
2022/04/15 10:19:49;;;;;;;7.68;2.75;;;;;;;;;;5113759;28;20031;-73
2022/04/15 10:22:16;;;;;;;6.65;2.80;;;;;;;;;;5113299;28;20395;-67
2022/04/15 10:24:41;;;;;;;10.15;2.83;;;;;;;;;;5113207;28;20122;-74
2022/04/15 10:27:07;;;;;;;5.10;2.75;;;;;;;;;;5113300;28;20566;-68
2022/04/15 10:29:32;;;;;;;6.90;2.80;;;;;;;;;;5113403;28;20529;-74
2022/04/15 10:32:11;;;;;;;6.97;3.22;;;;;;;;;;5113584;28;20106;-68
2022/04/15 10:34:47;;;;;;;8.32;3.30;;;;;;;;;;5113579;28;20024;-68
2022/04/15 10:37:13;;;;;;;7.13;3.70;;;;;;;;;;5113277;28;20024;-68
2022/04/15 10:39:50;;;;;;;9.60;3.47;;;;;;;;;;5113525;28;20024;-67
2022/04/15 10:42:19;;;;;;;9.18;3.50;;;;;;;;;;5113251;28;20027;-73
2022/04/15 10:44:45;;;;;;;9.10;3.97;;;;;;;;;;5113096;28;20034;-73
2022/04/15 10:47:17;;;;;;;9.05;3.53;;;;;;;;;;5113340;28;20027;-73
2022/04/15 10:50:06;;;;;;;8.55;3.63;;;;;;;;;;5113244;28;20031;-68
2022/04/15 10:52:36;;;;;;;9.23;3.53;;;;;;;;;;5113119;28;20055;-76
2022/04/15 10:55:03;;;;;;;9.53;3.40;;;;;;;;;;5113325;28;20046;-70
2022/04/15 10:57:40;;;;;;;9.05;3.97;;;;;;;;;;5112945;28;20170;-74
2022/04/15 11:02:53;;;;;;;12.32;3.97;;;;;;;;;;5112910;28;20050;-75
2022/04/15 11:05:43;;;;;;;8.65;3.42;;;;;;;;;;5113007;27;20032;-76
2022/04/15 11:08:16;;;;;;;8.18;4.15;;;;;;;;;;5112972;28;20038;-67
2022/04/15 11:11:07;;;;;;;10.07;4.25;;;;;;;;;;5112654;28;20026;-71
2022/04/15 11:13:43;;;;;;;10.57;4.13;;;;;;;;;;5112293;28;20023;-68
2022/04/15 11:16:18;;;;;;;10.73;4.30;;;;;;;;;;5112544;28;20047;-68
2022/04/15 11:18:54;;;;;;;8.77;3.90;;;;;;;;;;5113013;28;20059;-72
2022/04/15 11:21:30;;;;;;;11.50;4.15;;;;;;;;;;5112333;28;20531;-70
2022/04/15 11:24:05;;;;;;;10.43;4.00;;;;;;;;;;5112302;27;20502;-67
2022/04/15 11:26:32;;;;;;;8.88;3.70;;;;;;;;;;5112462;28;20054;-68
2022/04/15 11:29:00;;;;;;;8.73;3.78;;;;;;;;;;5112535;28;20490;-71
2022/04/15 11:31:28;;;;;;;9.55;3.92;;;;;;;;;;5112037;28;20032;-72
2022/04/15 11:33:56;;;;;;;9.95;4.88;;;;;;;;;;5112049;28;20035;-72
2022/04/15 11:36:23;;;;;;;10.77;4.57;;;;;;;;;;5112307;28;20019;-68
2022/04/15 11:38:50;;;;;;;10.63;4.93;;;;;;;;;;5112236;28;20278;-73
2022/04/15 11:41:22;;;;;;;9.27;4.20;;;;;;;;;;5112131;28;20035;-73
2022/04/15 11:43:59;;;;;;;10.65;4.43;;;;;;;;;;5112331;28;20015;-71
2022/04/15 11:46:25;;;;;;;10.15;4.55;;;;;;;;;;5111914;28;20023;-68
2022/04/15 11:48:50;;;;;;;11.45;4.10;;;;;;;;;;5111817;28;20027;-68
2022/04/15 11:51:22;;;;;;;10.82;3.80;;;;;;;;;;5112127;28;20027;-73
2022/04/15 11:53:47;;;;;;;13.20;4.60;;;;;;;;;;5111888;27;20026;-67
2022/04/15 11:56:15;;;;;;;10.45;4.78;;;;;;;;;;5112009;28;20401;-67
2022/04/15 11:58:41;;;;;;;9.40;4.18;;;;;;;;;;5111868;28;20067;-73
2022/04/15 12:01:07;;;;;;;10.05;4.30;;;;;;;;;;5111761;28;20067;-70
2022/04/15 12:03:33;;;;;;;12.48;4.82;;;;;;;;;;5111492;27;20031;-67
2022/04/15 12:05:58;;;;;;;10.13;4.70;;;;;;;;;;5111497;28;20028;-69
2022/04/15 12:08:25;;;;;;;11.20;4.43;;;;;;;;;;5111519;27;20016;-74
2022/04/15 12:10:50;;;;;;;11.80;4.72;;;;;;;;;;5111557;28;20038;-68
2022/04/15 12:13:17;;;;;;;13.15;5.00;;;;;;;;;;5111286;28;20020;-67
2022/04/15 12:15:44;;;;;;;11.93;4.15;;;;;;;;;;5111506;28;20487;-69
2022/04/15 12:18:10;;;;;;;11.30;4.57;;;;;;;;;;5111690;28;20068;-69
2022/04/15 12:20:39;;;;;;;14.30;4.32;;;;;;;;;;5111763;28;20383;-68
2022/04/15 12:23:05;;;;;;;10.30;4.30;;;;;;;;;;5111143;28;20049;-68
2022/04/15 12:30:59;;;;;;;11.68;4.38;;;;;;;;;;5111124;28;20081;-75
2022/04/15 12:33:24;;;;;;;9.15;4.05;;;;;;;;;;5111076;28;20023;-68
2022/04/15 12:36:01;;;;;;;11.48;4.70;;;;;;;;;;5111248;28;20123;-68
2022/04/15 12:38:27;;;;;;;10.13;4.30;;;;;;;;;;5111489;28;20019;-68
2022/04/15 12:40:58;;;;;;;11.05;4.00;;;;;;;;;;5110352;28;20538;-67
2022/04/15 12:43:24;;;;;;;10.90;4.30;;;;;;;;;;5110788;28;20027;-67
2022/04/15 12:45:55;;;;;;;10.48;4.10;;;;;;;;;;5110592;28;20027;-69
2022/04/15 12:48:21;;;;;;;12.02;3.88;;;;;;;;;;5111023;28;20023;-70
2022/04/15 12:50:52;;;;;;;10.55;3.80;;;;;;;;;;5110711;28;20064;-72
2022/04/15 12:53:18;;;;;;;;;;;;;;;;;;5111021;28;20102;-67
2022/04/15 12:55:44;;;;;;;9.70;4.20;;;;;;;;;;5110777;28;19912;-70
2022/04/15 12:58:26;;;;;;;10.18;3.72;;;;;;;;;;5110609;28;20053;-68
2022/04/15 13:00:54;;;;;;;11.10;3.65;;;;;;;;;;5110377;28;20055;-75
2022/04/15 13:03:22;;;;;;;8.68;3.25;;;;;;;;;;5110476;28;20028;-70
2022/04/15 13:05:49;;;;;;;7.72;3.80;;;;;;;;;;5110613;28;20028;-74
2022/04/15 13:08:15;;;;;;;11.73;4.40;;;;;;;;;;5110619;28;20398;-75
2022/04/15 13:10:42;;;;;;;11.13;4.18;;;;;;;;;;5110628;28;20028;-68
2022/04/15 13:13:08;;;;;;;9.00;3.88;;;;;;;;;;5110292;28;20020;-70
2022/04/15 13:15:34;;;;;;;10.52;4.13;;;;;;;;;;5110227;28;20116;-72
2022/04/15 13:18:00;;;;;;;8.38;3.50;;;;;;;;;;5110310;28;20116;-70
2022/04/15 13:20:26;;;;;;;14.60;3.80;;;;;;;;;;5110468;28;20524;-69
2022/04/15 13:22:52;;;;;;;8.93;3.10;;;;;;;;;;5110463;28;20016;-70
2022/04/15 13:25:18;;;;;;;10.38;3.13;;;;;;;;;;5110160;28;20043;-71
2022/04/15 13:27:44;;;;;;;11.65;3.08;;;;;;;;;;5110560;28;20027;-69
2022/04/15 13:30:09;;;;;;;8.20;3.00;;;;;;;;;;5110033;28;20023;-69
2022/04/15 13:32:35;;;;;;;8.68;3.40;;;;;;;;;;5109859;28;20024;-73
2022/04/15 13:35:01;;;;;;;12.07;3.35;;;;;;;;;;5110330;28;20039;-72
2022/04/15 13:37:26;;;;;;;9.95;3.63;;;;;;;;;;5110352;28;20030;-73
2022/04/15 13:39:51;;;;;;;9.02;3.20;;;;;;;;;;5110182;28;20205;-69
2022/04/15 13:42:17;;;;;;;8.68;3.58;;;;;;;;;;5109976;28;20023;-72
2022/04/15 13:44:43;;;;;;;11.55;3.30;;;;;;;;;;5110132;28;20046;-74
2022/04/15 13:47:09;;;;;;;10.75;3.65;;;;;;;;;;5110246;28;20483;-72
2022/04/15 13:49:35;;;;;;;8.70;3.42;;;;;;;;;;5110260;28;20032;-68
2022/04/15 13:56:34;;;;;;;13.23;3.42;;;;;;;;;;5112782;28;20035;-72
2022/04/15 13:57:32;;;;;;;9.57;3.33;;;;;;;;;;5114517;28;20108;-71
2022/04/15 14:00:04;;;;;;;11.05;3.58;;;;;;;;;;5114158;28;20070;-71
2022/04/15 14:02:30;;;;;;;10.75;3.55;;;;;;;;;;5113656;28;20482;-73
2022/04/15 14:04:55;;;;;;;8.98;3.40;;;;;;;;;;5113699;27;20034;-71
2022/04/15 14:07:21;;;;;;;7.20;3.00;;;;;;;;;;5114213;28;20038;-69
2022/04/15 14:09:46;;;;;;;7.22;3.38;;;;;;;;;;5113610;28;20031;-70
2022/04/15 14:12:12;;;;;;;9.80;3.00;;;;;;;;;;5113702;28;20023;-68
2022/04/15 14:14:37;;;;;;;9.23;3.03;;;;;;;;;;5113310;28;20030;-72
2022/04/15 14:17:03;;;;;;;9.60;2.60;;;;;;;;;;5113559;28;20030;-69
2022/04/15 14:19:28;;;;;;;8.77;2.70;;;;;;;;;;5113565;28;20047;-67
2022/04/15 14:21:54;;;;;;;12.73;2.67;;;;;;;;;;5113503;28;20141;-73
2022/04/15 14:24:19;;;;;;;11.00;2.80;;;;;;;;;;5112663;28;20051;-74
2022/04/15 14:26:46;;;;;;;11.05;2.90;;;;;;;;;;5113062;28;20542;-72
2022/04/15 14:29:11;;;;;;;8.77;2.97;;;;;;;;;;5113163;28;20039;-73
2022/04/15 14:31:37;;;;;;;10.80;2.85;;;;;;;;;;5113344;28;20024;-70
2022/04/15 14:34:02;;;;;;;6.75;2.75;;;;;;;;;;5113191;27;20077;-74
2022/04/15 14:36:28;;;;;;;7.53;2.65;;;;;;;;;;5113085;28;20049;-68
2022/04/15 14:38:54;;;;;;;9.77;2.90;;;;;;;;;;5112941;28;20023;-69
2022/04/15 14:41:19;;;;;;;5.05;2.70;;;;;;;;;;5113078;28;20045;-70
2022/04/15 14:43:45;;;;;;;6.45;2.65;;;;;;;;;;5112845;28;20068;-70
2022/04/15 14:46:11;;;;;;;11.00;2.83;;;;;;;;;;5112729;28;20028;-73
2022/04/15 14:48:38;;;;;;;7.72;2.25;;;;;;;;;;5112973;28;20034;-68
2022/04/15 14:51:04;;;;;;;8.05;2.80;;;;;;;;;;5112648;28;20459;-73